Time;durP1;ratioP1;P1;durP2;ratioP2;P2;SDS_P1;SDS_P2;PMS_P1;PMS_P2;Temp;Humidity;BMP_temperature;BMP_pressure;BME280_temperature;BME280_humidity;BME280_pressure;Samples;Min_cycle;Max_cycle;Signal;HPM_P1;HPM_P2
2021/09/12 00:02:16;;;;;;;2.38;0.60;;;15.70;99.90;;;;;;5048339;28;20033;-81
2021/09/12 00:04:42;;;;;;;0.10;0.10;;;15.60;99.90;;;;;;5047877;28;20036;-81
2021/09/12 00:07:08;;;;;;;0.10;0.10;;;15.60;99.90;;;;;;5049942;28;20037;-81
2021/09/12 00:09:33;;;;;;;0.77;0.43;;;15.50;99.90;;;;;;5045895;28;20136;-81
2021/09/12 00:12:00;;;;;;;0.30;0.30;;;15.40;99.90;;;;;;5047774;28;20053;-81
2021/09/12 00:14:26;;;;;;;;;;;15.40;99.90;;;;;;5046816;28;20043;-81
2021/09/12 00:16:52;;;;;;;0.57;0.57;;;15.30;99.90;;;;;;5062702;28;19912;-81
2021/09/12 00:19:18;;;;;;;0.17;0.17;;;15.30;99.90;;;;;;5047083;28;20102;-80
2021/09/12 00:21:44;;;;;;;0.45;0.40;;;15.20;99.90;;;;;;5046077;28;20074;-81
2021/09/12 00:24:10;;;;;;;0.50;0.50;;;15.10;99.90;;;;;;5045206;28;20029;-81
2021/09/12 00:26:35;;;;;;;0.40;0.40;;;15.10;99.90;;;;;;5047497;28;20041;-77
2021/09/12 00:29:02;;;;;;;0.07;0.07;;;15.10;99.90;;;;;;5045410;28;20040;-77
2021/09/12 00:31:28;;;;;;;0.20;0.20;;;15.20;99.90;;;;;;5055012;28;20060;-79
2021/09/12 00:33:54;;;;;;;0.23;0.23;;;15.10;99.90;;;;;;5063900;28;20107;-79
2021/09/12 00:36:19;;;;;;;0.73;0.30;;;15.20;99.90;;;;;;5049131;28;20033;-79
2021/09/12 00:38:45;;;;;;;0.10;0.10;;;15.20;99.90;;;;;;5046211;28;20410;-77
2021/09/12 00:41:11;;;;;;;0.17;0.17;;;15.30;99.90;;;;;;5049080;28;20029;-77
2021/09/12 00:43:37;;;;;;;0.00;0.00;;;15.30;99.90;;;;;;5046670;28;20030;-77
2021/09/12 00:46:06;;;;;;;0.20;0.20;;;15.30;99.90;;;;;;5049949;28;20033;-77
2021/09/12 00:48:36;;;;;;;1.05;0.80;;;15.20;99.90;;;;;;5060394;28;20032;-77
2021/09/12 00:51:03;;;;;;;0.43;0.43;;;15.10;99.90;;;;;;5048224;28;20029;-78
2021/09/12 00:53:35;;;;;;;0.70;0.43;;;15.10;99.90;;;;;;5047763;28;20417;-78
2021/09/12 00:56:02;;;;;;;0.40;0.40;;;15.00;99.90;;;;;;5044529;28;20511;-78
2021/09/12 00:58:29;;;;;;;0.70;0.63;;;15.00;99.90;;;;;;5046615;28;20033;-78
2021/09/12 01:00:55;;;;;;;0.30;0.30;;;15.00;99.90;;;;;;5050446;28;20032;-78
2021/09/12 01:03:21;;;;;;;0.10;0.10;;;15.00;99.90;;;;;;5045959;28;20125;-78
2021/09/12 01:05:47;;;;;;;0.23;0.23;;;15.00;99.90;;;;;;5050024;28;20040;-78
2021/09/12 01:08:13;;;;;;;0.20;0.20;;;15.10;99.90;;;;;;5044094;28;20322;-78
2021/09/12 01:10:41;;;;;;;0.30;0.30;;;14.90;99.90;;;;;;5048490;28;20100;-77
2021/09/12 01:13:07;;;;;;;0.20;0.20;;;14.90;99.90;;;;;;5045612;28;20120;-77
2021/09/12 01:15:34;;;;;;;0.65;0.52;;;14.90;99.90;;;;;;5049312;28;20501;-77
2021/09/12 01:18:00;;;;;;;0.82;0.82;;;14.90;99.90;;;;;;5047758;28;20080;-78
2021/09/12 01:20:26;;;;;;;0.30;0.30;;;15.00;99.90;;;;;;5044957;28;20409;-77
2021/09/12 01:22:52;;;;;;;0.28;0.28;;;15.00;99.90;;;;;;5029599;28;20025;-78
2021/09/12 01:25:18;;;;;;;0.20;0.20;;;14.90;99.90;;;;;;5046170;28;20524;-78
2021/09/12 01:27:44;;;;;;;0.10;0.10;;;14.90;99.90;;;;;;5049233;28;20029;-78
2021/09/12 01:30:11;;;;;;;0.83;0.60;;;14.70;99.90;;;;;;5046092;28;20474;-77
2021/09/12 01:32:37;;;;;;;;;;;14.80;99.90;;;;;;5045023;28;20044;-77
2021/09/12 01:35:04;;;;;;;0.08;0.08;;;14.70;99.90;;;;;;5043163;28;19916;-77
2021/09/12 01:37:30;;;;;;;0.03;0.03;;;14.70;99.90;;;;;;5041789;28;20037;-78
2021/09/12 01:39:56;;;;;;;0.15;0.10;;;14.70;99.90;;;;;;5046300;28;20496;-78
2021/09/12 01:42:22;;;;;;;0.27;0.27;;;14.70;99.90;;;;;;5044297;28;20047;-77
2021/09/12 01:44:49;;;;;;;0.20;0.20;;;14.70;99.90;;;;;;5045210;28;20037;-77
2021/09/12 01:47:16;;;;;;;0.17;0.17;;;14.70;99.90;;;;;;5045258;28;20045;-77
2021/09/12 01:49:42;;;;;;;4.70;0.30;;;14.60;99.90;;;;;;5046551;28;20029;-77
2021/09/12 01:52:12;;;;;;;0.20;0.20;;;14.60;99.90;;;;;;5047062;28;20040;-77
2021/09/12 01:54:38;;;;;;;0.28;0.20;;;14.60;99.90;;;;;;5047322;28;20035;-77
2021/09/12 01:57:05;;;;;;;0.20;0.20;;;14.50;99.90;;;;;;5063349;28;20032;-77
2021/09/12 01:59:30;;;;;;;0.30;0.30;;;14.40;99.90;;;;;;5032891;28;20067;-78
2021/09/12 02:01:56;;;;;;;0.10;0.10;;;14.40;99.90;;;;;;5049227;28;20063;-78
2021/09/12 02:04:22;;;;;;;0.10;0.10;;;14.50;99.90;;;;;;5047294;28;20055;-78
2021/09/12 02:06:47;;;;;;;0.10;0.10;;;14.40;99.90;;;;;;5050299;28;20040;-78
2021/09/12 02:09:13;;;;;;;0.10;0.10;;;14.40;99.90;;;;;;5046953;28;20037;-78
2021/09/12 02:11:39;;;;;;;0.00;0.00;;;14.40;99.90;;;;;;5046519;28;20133;-78
2021/09/12 02:14:04;;;;;;;0.00;0.00;;;14.30;99.90;;;;;;5047514;28;20044;-78
2021/09/12 02:16:30;;;;;;;0.10;0.10;;;14.30;99.90;;;;;;5046503;28;20517;-77
2021/09/12 02:18:56;;;;;;;0.10;0.10;;;14.20;99.90;;;;;;5048234;28;20031;-78
2021/09/12 02:21:22;;;;;;;0.27;0.27;;;14.30;99.90;;;;;;5048455;28;20037;-78
2021/09/12 02:23:47;;;;;;;1.27;0.20;;;14.40;99.90;;;;;;5048599;28;20025;-78
2021/09/12 02:26:14;;;;;;;0.43;0.43;;;14.30;99.90;;;;;;5030309;28;20062;-78
2021/09/12 02:28:40;;;;;;;;;;;14.30;99.90;;;;;;5046940;28;20033;-77
2021/09/12 02:31:05;;;;;;;0.30;0.30;;;14.20;99.90;;;;;;5048831;28;20277;-78
2021/09/12 02:33:31;;;;;;;0.20;0.20;;;14.20;99.90;;;;;;5045847;28;20443;-78
2021/09/12 02:35:57;;;;;;;0.10;0.10;;;14.10;99.90;;;;;;5051384;28;20036;-78
2021/09/12 02:38:22;;;;;;;0.27;0.27;;;14.00;99.90;;;;;;5046752;28;20768;-77
2021/09/12 02:40:48;;;;;;;0.10;0.10;;;13.90;99.90;;;;;;5047094;28;20067;-78
2021/09/12 02:43:13;;;;;;;0.10;0.10;;;14.00;99.90;;;;;;5046648;28;20032;-78
2021/09/12 02:45:39;;;;;;;0.10;0.10;;;14.10;99.90;;;;;;5047124;28;20033;-78
2021/09/12 02:48:05;;;;;;;0.27;0.27;;;14.00;99.90;;;;;;5046987;28;20501;-78
2021/09/12 02:50:31;;;;;;;0.47;0.33;;;14.00;99.90;;;;;;5047348;28;20029;-77
2021/09/12 02:52:56;;;;;;;0.73;0.30;;;14.00;99.90;;;;;;5045815;28;20782;-78
2021/09/12 02:55:22;;;;;;;6.90;0.83;;;14.00;99.90;;;;;;5045949;28;20017;-78
2021/09/12 02:57:48;;;;;;;0.07;0.07;;;14.00;99.90;;;;;;5047007;28;20032;-77
2021/09/12 03:00:14;;;;;;;0.50;0.40;;;13.90;99.90;;;;;;5029021;28;20108;-78
2021/09/12 03:02:39;;;;;;;0.40;0.40;;;13.80;99.90;;;;;;5046094;28;20030;-78
2021/09/12 03:05:06;;;;;;;0.00;0.00;;;13.70;99.90;;;;;;5045180;28;20291;-78
2021/09/12 03:07:32;;;;;;;0.28;0.28;;;13.70;99.90;;;;;;5029383;28;20071;-78
2021/09/12 03:09:57;;;;;;;0.10;0.10;;;13.70;99.90;;;;;;5063084;28;20052;-78
2021/09/12 03:12:23;;;;;;;0.40;0.40;;;13.70;99.90;;;;;;5050092;28;20519;-78
2021/09/12 03:14:49;;;;;;;0.10;0.10;;;13.70;99.90;;;;;;5048518;28;20131;-78
2021/09/12 03:17:14;;;;;;;2.13;0.20;;;13.70;99.90;;;;;;5031200;28;20124;-78
2021/09/12 03:19:40;;;;;;;1.03;0.83;;;13.60;99.90;;;;;;5047304;28;20036;-78
2021/09/12 03:22:06;;;;;;;0.10;0.10;;;13.60;99.90;;;;;;5046676;28;20028;-78
2021/09/12 03:24:32;;;;;;;0.60;0.60;;;13.60;99.90;;;;;;5046289;28;20059;-78
2021/09/12 03:26:58;;;;;;;0.47;0.47;;;13.60;99.90;;;;;;5030246;28;20044;-78
2021/09/12 03:29:23;;;;;;;0.47;0.47;;;13.60;99.90;;;;;;5045866;28;20021;-78
2021/09/12 03:31:49;;;;;;;0.53;0.53;;;13.60;99.90;;;;;;5045625;28;20032;-78
2021/09/12 03:34:15;;;;;;;1.13;0.77;;;13.60;99.90;;;;;;5048045;28;20025;-77
2021/09/12 03:36:41;;;;;;;0.20;0.20;;;13.50;99.90;;;;;;5045509;28;20055;-78
2021/09/12 03:39:06;;;;;;;18.60;0.97;;;13.50;99.90;;;;;;5044834;28;20025;-78
2021/09/12 03:41:32;;;;;;;0.73;0.53;;;13.50;99.90;;;;;;5046838;28;20250;-79
2021/09/12 03:43:58;;;;;;;0.10;0.10;;;13.40;99.90;;;;;;5045733;28;20494;-79
2021/09/12 03:46:23;;;;;;;0.20;0.20;;;13.40;99.90;;;;;;5045322;28;20516;-79
2021/09/12 03:48:49;;;;;;;0.20;0.20;;;13.40;99.90;;;;;;5048403;28;20032;-78
2021/09/12 03:51:15;;;;;;;0.10;0.10;;;13.40;99.90;;;;;;5053945;28;20024;-79
2021/09/12 03:53:40;;;;;;;0.57;0.57;;;13.30;99.90;;;;;;5049383;28;20123;-78
2021/09/12 03:56:06;;;;;;;0.40;0.40;;;13.30;99.90;;;;;;5045112;28;20583;-77
2021/09/12 03:58:32;;;;;;;0.40;0.33;;;13.40;99.90;;;;;;5046167;28;20529;-78
2021/09/12 04:00:57;;;;;;;0.20;0.20;;;13.30;99.90;;;;;;5048241;28;20031;-77
2021/09/12 04:03:23;;;;;;;0.20;0.20;;;13.30;99.90;;;;;;5061420;28;20064;-77
2021/09/12 04:05:49;;;;;;;0.10;0.10;;;13.30;99.90;;;;;;5047279;28;20041;-78
2021/09/12 04:08:15;;;;;;;0.20;0.20;;;13.30;99.90;;;;;;5044273;28;20093;-78
2021/09/12 04:10:40;;;;;;;0.00;0.00;;;13.30;99.90;;;;;;5044576;28;20522;-78
2021/09/12 04:13:06;;;;;;;0.23;0.23;;;13.20;99.90;;;;;;5057871;28;20040;-79
2021/09/12 04:15:32;;;;;;;0.20;0.20;;;13.20;99.90;;;;;;5045715;28;20032;-79
2021/09/12 04:17:57;;;;;;;0.63;0.47;;;13.20;99.90;;;;;;5045276;28;20044;-78
2021/09/12 04:20:23;;;;;;;0.30;0.30;;;13.10;99.90;;;;;;5044766;28;20401;-78
2021/09/12 04:22:49;;;;;;;0.13;0.13;;;13.10;99.90;;;;;;5031962;28;20166;-79
2021/09/12 04:25:15;;;;;;;0.10;0.10;;;13.10;99.90;;;;;;5072034;28;20024;-78
2021/09/12 04:27:40;;;;;;;2.90;1.17;;;13.10;99.90;;;;;;5045825;28;20041;-79
2021/09/12 04:30:08;;;;;;;0.13;0.13;;;13.10;99.90;;;;;;5047697;28;20060;-77
2021/09/12 04:32:33;;;;;;;0.10;0.10;;;13.20;99.90;;;;;;5048908;28;20045;-77
2021/09/12 04:34:59;;;;;;;0.20;0.20;;;13.10;99.90;;;;;;5052635;28;20025;-78
2021/09/12 04:37:25;;;;;;;0.17;0.17;;;13.10;99.90;;;;;;5054050;28;20071;-78
2021/09/12 04:39:51;;;;;;;0.20;0.20;;;13.00;99.90;;;;;;5052216;28;20040;-77
2021/09/12 04:42:16;;;;;;;0.10;0.10;;;13.00;99.90;;;;;;5054776;28;20063;-77
2021/09/12 04:44:42;;;;;;;0.22;0.22;;;13.00;99.90;;;;;;5053729;28;20408;-77
2021/09/12 04:47:08;;;;;;;0.43;0.40;;;13.10;99.90;;;;;;5057608;28;20553;-77
2021/09/12 04:49:33;;;;;;;0.23;0.23;;;13.10;99.90;;;;;;5055910;28;20036;-76
2021/09/12 04:51:59;;;;;;;0.10;0.10;;;13.00;99.90;;;;;;5056266;28;20060;-77
2021/09/12 04:54:25;;;;;;;0.67;0.33;;;13.00;99.90;;;;;;5052957;28;20495;-77
2021/09/12 04:56:50;;;;;;;0.20;0.20;;;13.00;99.90;;;;;;5050399;28;20047;-77
2021/09/12 04:59:16;;;;;;;0.10;0.10;;;13.10;99.90;;;;;;5053266;28;20035;-77
2021/09/12 05:01:42;;;;;;;0.03;0.03;;;12.90;99.90;;;;;;5062054;28;20445;-79
2021/09/12 05:04:07;;;;;;;0.10;0.10;;;13.00;99.90;;;;;;5036380;28;20021;-80
2021/09/12 05:06:33;;;;;;;0.83;0.53;;;12.90;99.90;;;;;;5047679;28;20044;-79
2021/09/12 05:08:59;;;;;;;0.23;0.20;;;12.90;99.90;;;;;;5051545;28;20024;-79
2021/09/12 05:11:24;;;;;;;0.23;0.23;;;12.90;99.90;;;;;;5048007;28;20057;-79
2021/09/12 05:13:50;;;;;;;0.30;0.30;;;12.90;99.90;;;;;;5046851;28;20108;-79
2021/09/12 05:16:16;;;;;;;0.20;0.20;;;12.90;99.90;;;;;;5035918;28;20039;-78
2021/09/12 05:18:41;;;;;;;0.67;0.67;;;13.00;99.90;;;;;;5049634;28;20067;-79
2021/09/12 05:21:07;;;;;;;0.10;0.10;;;13.00;99.90;;;;;;5033600;28;20052;-79
2021/09/12 05:23:33;;;;;;;0.53;0.53;;;13.00;99.90;;;;;;5053651;28;20097;-79
2021/09/12 05:25:58;;;;;;;1.20;0.37;;;13.00;99.90;;;;;;5054806;28;20033;-78
2021/09/12 05:28:24;;;;;;;0.10;0.10;;;13.00;99.90;;;;;;5049741;28;20021;-78
2021/09/12 05:30:50;;;;;;;0.10;0.10;;;13.00;99.90;;;;;;5037996;28;20024;-78
2021/09/12 05:33:16;;;;;;;0.20;0.20;;;13.00;99.90;;;;;;5050398;28;20557;-78
2021/09/12 05:35:41;;;;;;;0.33;0.33;;;13.00;99.90;;;;;;5050319;28;20485;-77
2021/09/12 05:38:08;;;;;;;0.53;0.47;;;13.10;99.90;;;;;;5048821;28;20075;-77
2021/09/12 05:40:33;;;;;;;0.20;0.20;;;13.10;99.90;;;;;;5056302;28;20029;-79
2021/09/12 05:42:59;;;;;;;0.20;0.20;;;13.30;99.90;;;;;;5061530;28;20476;-79
2021/09/12 05:45:25;;;;;;;0.20;0.20;;;13.90;99.90;;;;;;5055185;28;20036;-76
2021/09/12 05:47:51;;;;;;;0.10;0.10;;;14.40;99.90;;;;;;5055723;28;20525;-82
2021/09/12 05:50:17;;;;;;;0.10;0.10;;;14.50;99.90;;;;;;5054507;28;20445;-79
2021/09/12 05:52:43;;;;;;;0.27;0.27;;;14.70;99.90;;;;;;5055441;28;20401;-80
2021/09/12 05:55:09;;;;;;;0.20;0.20;;;15.20;99.90;;;;;;5053040;28;20025;-80
2021/09/12 05:57:35;;;;;;;0.10;0.10;;;15.50;99.90;;;;;;5047439;28;20137;-79
2021/09/12 06:00:01;;;;;;;0.37;0.37;;;15.60;99.90;;;;;;5030969;28;20159;-78
2021/09/12 06:02:27;;;;;;;0.63;0.50;;;16.00;99.90;;;;;;5049970;28;20029;-80
2021/09/12 06:04:52;;;;;;;0.00;0.00;;;16.10;99.90;;;;;;5033124;28;20061;-78
2021/09/12 06:07:18;;;;;;;0.10;0.10;;;15.90;99.90;;;;;;5048353;28;20041;-79
2021/09/12 06:09:44;;;;;;;0.40;0.40;;;16.00;99.90;;;;;;5008557;28;1251694;-80
2021/09/12 06:12:10;;;;;;;0.10;0.10;;;15.50;99.90;;;;;;5051652;28;20108;-81
2021/09/12 06:14:36;;;;;;;0.10;0.10;;;16.60;99.90;;;;;;5049718;28;20037;-83
2021/09/12 06:17:05;;;;;;;0.00;0.00;;;16.80;99.90;;;;;;5049438;28;20120;-83
2021/09/12 06:19:35;;;;;;;0.52;0.52;;;17.50;99.90;;;;;;5041857;28;20041;-82
2021/09/12 06:22:01;;;;;;;0.30;0.30;;;17.60;99.90;;;;;;5054988;28;20116;-82
2021/09/12 06:24:27;;;;;;;0.00;0.00;;;17.60;99.90;;;;;;5055090;28;20041;-81
2021/09/12 06:26:53;;;;;;;0.27;0.23;;;18.20;99.90;;;;;;5053575;28;20044;-81
2021/09/12 06:29:19;;;;;;;0.20;0.20;;;17.60;99.90;;;;;;5055735;28;20405;-80
2021/09/12 06:31:45;;;;;;;1.70;0.73;;;18.10;99.90;;;;;;5050002;28;20292;-80
2021/09/12 06:34:11;;;;;;;1.45;0.60;;;18.20;99.90;;;;;;5062149;28;20036;-79
2021/09/12 06:36:36;;;;;;;0.10;0.10;;;18.90;99.90;;;;;;5051148;28;20033;-79
2021/09/12 06:39:02;;;;;;;0.10;0.10;;;18.60;99.90;;;;;;5050759;28;20029;-79
2021/09/12 06:41:28;;;;;;;0.00;0.00;;;18.50;99.90;;;;;;5071731;28;20028;-80
2021/09/12 06:43:53;;;;;;;3.80;0.30;;;19.70;99.90;;;;;;5041842;28;20104;-80
2021/09/12 06:46:19;;;;;;;0.00;0.00;;;20.50;99.90;;;;;;5062761;28;20413;-79
2021/09/12 06:48:45;;;;;;;0.00;0.00;;;22.30;99.90;;;;;;5056877;28;20112;-83
2021/09/12 06:51:12;;;;;;;0.00;0.00;;;22.40;99.90;;;;;;5051140;28;20063;-81
2021/09/12 06:53:38;;;;;;;0.00;0.00;;;22.70;99.90;;;;;;5048357;28;20086;-81
2021/09/12 06:56:04;;;;;;;0.00;0.00;;;22.50;99.90;;;;;;5050555;28;20040;-81
2021/09/12 06:58:30;;;;;;;0.20;0.20;;;22.80;99.90;;;;;;5047904;28;20382;-81
2021/09/12 07:00:58;;;;;;;0.40;0.10;;;23.80;99.90;;;;;;5034654;28;20033;-81
2021/09/12 07:03:24;;;;;;;0.43;0.30;;;22.80;99.90;;;;;;5051143;28;20140;-82
2021/09/12 07:05:50;;;;;;;;;;;23.30;99.90;;;;;;5053721;28;20132;-82
2021/09/12 07:08:15;;;;;;;0.20;0.20;;;23.50;99.90;;;;;;5057181;28;20011;-82
2021/09/12 07:10:41;;;;;;;0.07;0.07;;;25.20;99.90;;;;;;5055279;28;20379;-81
2021/09/12 07:13:07;;;;;;;0.00;0.00;;;26.50;99.90;;;;;;5051100;28;20264;-81
2021/09/12 07:15:33;;;;;;;0.37;0.27;;;25.10;99.60;;;;;;5048466;28;20025;-81
2021/09/12 07:17:58;;;;;;;0.00;0.00;;;24.40;99.00;;;;;;5034603;28;20382;-81
2021/09/12 07:20:24;;;;;;;0.10;0.05;;;25.60;98.30;;;;;;5052395;28;20078;-81
2021/09/12 07:22:50;;;;;;;0.32;0.32;;;25.50;96.60;;;;;;5048207;28;20047;-81
2021/09/12 07:25:16;;;;;;;0.10;0.00;;;26.50;96.30;;;;;;5049029;28;20099;-81
2021/09/12 07:27:41;;;;;;;0.00;0.00;;;26.30;96.50;;;;;;5049071;28;20056;-81
2021/09/12 07:30:08;;;;;;;0.23;0.23;;;25.90;94.20;;;;;;5048327;28;20403;-81
2021/09/12 07:32:33;;;;;;;0.93;0.60;;;24.60;97.10;;;;;;5051776;28;20040;-81
2021/09/12 07:34:59;;;;;;;1.47;0.73;;;24.80;95.60;;;;;;5047955;28;20025;-81
2021/09/12 07:37:25;;;;;;;0.20;0.10;;;25.40;96.70;;;;;;5047865;28;20115;-81
2021/09/12 07:39:50;;;;;;;0.00;0.00;;;26.10;93.90;;;;;;5057683;28;20769;-81
2021/09/12 07:42:16;;;;;;;0.33;0.33;;;26.50;92.10;;;;;;5052825;28;20696;-81
2021/09/12 07:44:42;;;;;;;0.00;0.00;;;27.00;92.50;;;;;;5050605;28;20181;-81
2021/09/12 07:47:07;;;;;;;3.00;0.33;;;27.90;87.60;;;;;;5048561;28;20295;-81
2021/09/12 07:49:33;;;;;;;0.00;0.00;;;27.80;88.10;;;;;;5048212;28;20033;-81
2021/09/12 07:51:59;;;;;;;0.30;0.00;;;27.40;88.00;;;;;;5055052;28;20079;-81
2021/09/12 07:54:24;;;;;;;1.10;0.60;;;26.60;87.00;;;;;;5048886;28;20299;-81
2021/09/12 07:56:50;;;;;;;0.10;0.10;;;26.40;86.80;;;;;;5048947;28;20037;-81
2021/09/12 07:59:16;;;;;;;0.00;0.00;;;27.90;82.40;;;;;;5054493;28;20375;-81
2021/09/12 08:01:41;;;;;;;0.00;0.00;;;27.20;83.70;;;;;;5049116;28;20033;-81
2021/09/12 08:04:07;;;;;;;0.10;0.10;;;27.90;82.90;;;;;;5053094;28;20044;-81
2021/09/12 08:06:32;;;;;;;0.00;0.00;;;27.00;82.40;;;;;;5049301;28;20525;-81
2021/09/12 08:08:58;;;;;;;0.08;0.08;;;27.00;79.70;;;;;;5053912;28;20087;-81
2021/09/12 08:11:24;;;;;;;0.00;0.00;;;27.50;79.40;;;;;;5019128;28;20049;-82
2021/09/12 08:13:49;;;;;;;0.00;0.00;;;27.40;80.60;;;;;;5013977;28;20273;-81
2021/09/12 08:16:15;;;;;;;0.00;0.00;;;27.40;80.10;;;;;;5008842;28;20507;-81
2021/09/12 08:18:41;;;;;;;0.08;0.08;;;28.30;75.70;;;;;;5012987;28;20025;-85
2021/09/12 08:21:07;;;;;;;0.03;0.03;;;25.10;86.40;;;;;;5008062;28;20111;-85
2021/09/12 08:23:32;;;;;;;0.00;0.00;;;23.10;91.60;;;;;;5016005;28;20510;-84
2021/09/12 08:25:58;;;;;;;0.20;0.20;;;22.60;92.80;;;;;;5009679;28;20544;-84
2021/09/12 08:28:24;;;;;;;0.10;0.00;;;21.90;94.80;;;;;;5019110;28;20081;-85
2021/09/12 08:30:50;;;;;;;0.10;0.10;;;22.70;94.30;;;;;;5008247;28;20341;-84
2021/09/12 08:33:16;;;;;;;0.00;0.00;;;23.60;93.40;;;;;;5007808;28;20040;-83
2021/09/12 08:35:44;;;;;;;0.10;0.10;;;23.80;93.10;;;;;;5008397;28;20049;-84
2021/09/12 08:38:10;;;;;;;0.28;0.10;;;24.70;90.90;;;;;;5003916;28;20038;-83
2021/09/12 08:40:36;;;;;;;0.00;0.00;;;23.80;92.00;;;;;;5008327;28;20418;-83
2021/09/12 08:43:02;;;;;;;0.38;0.30;;;23.90;91.60;;;;;;5008401;28;20030;-83
2021/09/12 08:45:28;;;;;;;0.10;0.10;;;24.20;92.40;;;;;;5014501;28;20041;-81
2021/09/12 08:47:54;;;;;;;1.17;0.75;;;27.60;80.90;;;;;;5009857;28;20867;-81
2021/09/12 08:50:21;;;;;;;4.28;0.15;;;31.10;75.30;;;;;;5016177;28;20140;-82
2021/09/12 08:52:47;;;;;;;0.00;0.00;;;33.20;59.00;;;;;;5016493;28;20042;-81
2021/09/12 08:55:13;;;;;;;0.00;0.00;;;34.50;56.80;;;;;;5013318;28;20029;-82
2021/09/12 08:57:51;;;;;;;0.15;0.15;;;33.10;49.90;;;;;;5011691;28;20033;-82
2021/09/12 09:00:27;;;;;;;0.10;0.10;;;32.50;51.70;;;;;;5007949;28;20427;-82
2021/09/12 09:02:58;;;;;;;;;;;34.30;47.50;;;;;;5011855;28;20580;-82
2021/09/12 09:05:33;;;;;;;0.32;0.30;;;35.70;41.10;;;;;;5009779;28;19913;-80
2021/09/12 09:08:12;;;;;;;0.00;0.00;;;35.40;44.80;;;;;;5046027;28;20470;-80
2021/09/12 09:10:48;;;;;;;0.00;0.00;;;35.80;40.60;;;;;;5028597;28;20037;-80
2021/09/12 09:13:29;;;;;;;0.30;0.30;;;34.00;35.70;;;;;;5050302;28;20034;-79
2021/09/12 09:15:59;;;;;;;1.38;0.20;;;36.90;34.00;;;;;;5051158;28;20569;-80
2021/09/12 09:18:35;;;;;;;0.90;0.90;;;38.20;31.60;;;;;;5048858;28;20033;-80
2021/09/12 09:21:23;;;;;;;0.77;0.77;;;36.10;41.30;;;;;;5049303;28;20021;-80
2021/09/12 09:24:22;;;;;;;0.10;0.10;;;36.00;37.10;;;;;;5033575;28;20036;-80
2021/09/12 09:26:50;;;;;;;2.63;0.40;;;34.60;33.60;;;;;;5050151;28;20602;-80
2021/09/12 09:29:23;;;;;;;0.13;0.00;;;35.10;34.50;;;;;;5049024;28;20036;-80
2021/09/12 09:32:06;;;;;;;0.05;0.05;;;34.90;32.00;;;;;;5065485;28;20041;-80
2021/09/12 09:34:33;;;;;;;0.10;0.08;;;34.40;29.40;;;;;;5050803;28;20057;-79
2021/09/12 09:37:09;;;;;;;0.20;0.20;;;35.60;32.70;;;;;;5053864;28;20037;-80
2021/09/12 09:39:40;;;;;;;0.00;0.00;;;35.20;27.80;;;;;;5050099;28;20484;-80
2021/09/12 09:42:08;;;;;;;0.05;0.05;;;35.00;27.30;;;;;;5049309;28;20036;-80
2021/09/12 09:44:34;;;;;;;0.10;0.10;;;34.70;32.50;;;;;;5034101;28;20846;-80
2021/09/12 09:47:09;;;;;;;0.10;0.10;;;35.60;33.50;;;;;;5049639;28;20044;-80
2021/09/12 09:49:37;;;;;;;0.00;0.00;;;36.10;31.60;;;;;;5052130;28;20040;-80
2021/09/12 09:52:03;;;;;;;0.10;0.10;;;36.90;28.20;;;;;;5036069;28;20471;-80
2021/09/12 09:54:33;;;;;;;0.15;0.15;;;37.50;24.90;;;;;;5050657;28;20134;-80
2021/09/12 09:57:00;;;;;;;0.15;0.15;;;37.80;26.80;;;;;;5048933;28;20044;-80
2021/09/12 09:59:26;;;;;;;;;;;36.60;26.00;;;;;;5055442;28;20028;-80
2021/09/12 10:01:53;;;;;;;0.00;0.00;;;36.80;28.80;;;;;;5054516;28;20415;-80
2021/09/12 10:04:26;;;;;;;0.20;0.20;;;36.40;38.50;;;;;;5052607;28;20032;-80
2021/09/12 10:06:53;;;;;;;0.20;0.20;;;35.90;23.70;;;;;;5049214;28;20119;-80
2021/09/12 10:09:20;;;;;;;0.05;0.05;;;37.00;26.80;;;;;;5051804;28;20119;-80
2021/09/12 10:11:53;;;;;;;0.00;0.00;;;37.60;23.30;;;;;;5046134;28;20088;-80
2021/09/12 10:14:33;;;;;;;0.00;0.00;;;36.90;24.40;;;;;;5048199;28;20440;-80
2021/09/12 10:17:01;;;;;;;0.10;0.10;;;37.20;24.40;;;;;;5059661;28;20033;-80
2021/09/12 10:19:34;;;;;;;0.25;0.22;;;35.90;28.00;;;;;;5066603;28;20025;-80
2021/09/12 10:22:06;;;;;;;2.60;0.45;;;36.30;24.10;;;;;;5051958;28;20079;-83
2021/09/12 10:24:33;;;;;;;0.10;0.10;;;36.90;22.80;;;;;;5058461;28;20032;-84
2021/09/12 10:26:58;;;;;;;0.00;0.00;;;36.80;24.70;;;;;;5041744;28;20040;-79
2021/09/12 10:29:46;;;;;;;0.00;0.00;;;35.70;27.10;;;;;;5057427;28;20458;-81
2021/09/12 10:32:33;;;;;;;0.20;0.20;;;35.00;29.80;;;;;;5045490;28;20661;-82
2021/09/12 10:35:24;;;;;;;0.10;0.10;;;34.90;35.40;;;;;;5051053;28;20067;-82
2021/09/12 10:38:12;;;;;;;0.00;0.00;;;33.50;39.00;;;;;;5049283;28;20112;-81
2021/09/12 10:40:47;;;;;;;0.03;0.03;;;32.40;39.40;;;;;;5060787;28;20071;-80
2021/09/12 10:43:39;;;;;;;0.00;0.00;;;30.70;39.80;;;;;;5046176;28;20122;-81
2021/09/12 10:46:05;;;;;;;0.13;0.13;;;30.00;40.60;;;;;;5045147;28;20076;-80
2021/09/12 10:49:03;;;;;;;0.00;0.00;;;29.10;43.10;;;;;;5049528;28;20117;-80
2021/09/12 10:51:30;;;;;;;0.10;0.10;;;28.60;47.70;;;;;;5039974;28;20334;-80
2021/09/12 10:53:59;;;;;;;0.30;0.30;;;28.20;47.20;;;;;;5029257;28;20052;-81
2021/09/12 10:56:25;;;;;;;0.15;0.15;;;27.70;47.70;;;;;;5051122;28;20039;-81
2021/09/12 10:58:58;;;;;;;0.20;0.20;;;27.20;52.70;;;;;;5049210;28;20029;-80
2021/09/12 11:01:25;;;;;;;0.00;0.00;;;27.30;52.70;;;;;;5051078;28;20036;-80
2021/09/12 11:03:56;;;;;;;0.00;0.00;;;27.50;53.10;;;;;;5034574;28;20485;-80
2021/09/12 11:06:22;;;;;;;0.30;0.05;;;27.40;53.70;;;;;;5047964;28;20028;-80
2021/09/12 11:08:48;;;;;;;0.10;0.10;;;27.10;54.40;;;;;;5049265;28;20159;-80
2021/09/12 11:11:14;;;;;;;0.37;0.37;;;27.00;55.60;;;;;;5030076;28;20135;-81
2021/09/12 11:13:40;;;;;;;0.52;0.35;;;26.50;55.70;;;;;;5051841;28;20045;-80
2021/09/12 11:16:10;;;;;;;0.05;0.05;;;25.60;59.30;;;;;;5035726;28;20094;-81
2021/09/12 11:19:14;;;;;;;0.32;0.28;;;25.70;59.40;;;;;;5053544;28;20051;-81
2021/09/12 11:21:43;;;;;;;0.40;0.05;;;26.20;58.70;;;;;;5039765;28;20049;-80
2021/09/12 11:24:22;;;;;;;0.00;0.00;;;26.30;58.60;;;;;;5050057;28;20038;-80
2021/09/12 11:27:04;;;;;;;0.00;0.00;;;26.20;59.30;;;;;;5033361;28;20068;-80
2021/09/12 11:29:31;;;;;;;0.10;0.10;;;26.10;57.10;;;;;;5054656;28;20028;-82
2021/09/12 11:32:05;;;;;;;0.10;0.10;;;24.90;58.80;;;;;;5047139;28;20041;-82
2021/09/12 11:34:32;;;;;;;0.10;0.10;;;25.50;58.90;;;;;;5046628;28;20112;-81
2021/09/12 11:36:59;;;;;;;0.10;0.00;;;25.80;59.80;;;;;;5047003;28;20028;-82
2021/09/12 11:39:27;;;;;;;0.10;0.10;;;25.80;59.00;;;;;;5032497;28;20425;-82
2021/09/12 11:41:55;;;;;;;0.15;0.15;;;25.50;58.10;;;;;;5045087;28;20497;-81
2021/09/12 11:44:28;;;;;;;0.00;0.00;;;25.10;60.10;;;;;;5045207;28;20090;-82
2021/09/12 11:46:53;;;;;;;0.00;0.00;;;25.10;60.30;;;;;;5044936;28;20036;-81
2021/09/12 11:49:19;;;;;;;0.10;0.10;;;25.60;60.50;;;;;;5045170;28;20087;-81
2021/09/12 11:51:47;;;;;;;0.00;0.00;;;25.80;62.20;;;;;;5047485;28;20029;-81
2021/09/12 11:54:19;;;;;;;0.40;0.38;;;25.80;61.00;;;;;;5040330;28;20032;-82
2021/09/12 11:57:03;;;;;;;0.00;0.00;;;25.70;60.80;;;;;;5043578;28;20142;-82
2021/09/12 11:59:32;;;;;;;0.00;0.00;;;25.70;61.00;;;;;;5044657;28;20116;-81
2021/09/12 12:01:59;;;;;;;0.20;0.20;;;25.90;60.50;;;;;;5048009;28;20460;-82
2021/09/12 12:04:27;;;;;;;0.05;0.03;;;25.50;60.30;;;;;;5026234;28;20508;-81
2021/09/12 12:06:55;;;;;;;0.00;0.00;;;25.40;60.10;;;;;;5047664;28;20037;-81
2021/09/12 12:09:31;;;;;;;0.00;0.00;;;25.30;60.60;;;;;;5045339;28;20028;-81
2021/09/12 12:12:07;;;;;;;0.38;0.10;;;25.40;61.40;;;;;;5043431;28;20532;-81
2021/09/12 12:14:33;;;;;;;0.00;0.00;;;25.30;61.40;;;;;;5043943;28;20037;-81
2021/09/12 12:17:04;;;;;;;0.00;0.00;;;25.30;62.20;;;;;;5044387;28;20028;-81
2021/09/12 12:19:34;;;;;;;0.00;0.00;;;25.10;61.40;;;;;;5028028;28;20413;-81
2021/09/12 12:22:07;;;;;;;0.10;0.10;;;25.20;62.00;;;;;;5047722;28;20111;-80
2021/09/12 12:24:39;;;;;;;0.00;0.00;;;25.20;61.50;;;;;;5047979;28;20040;-80
2021/09/12 12:27:10;;;;;;;0.00;0.00;;;24.70;62.00;;;;;;5044265;28;20102;-80
2021/09/12 12:29:40;;;;;;;0.15;0.15;;;24.40;62.80;;;;;;5045519;28;20097;-80
2021/09/12 12:32:07;;;;;;;0.00;0.00;;;24.70;63.00;;;;;;5045423;28;20470;-80
2021/09/12 12:34:53;;;;;;;2.15;0.82;;;24.70;62.60;;;;;;5043487;28;20590;-80
2021/09/12 12:37:41;;;;;;;0.00;0.00;;;24.80;61.80;;;;;;5026715;28;20434;-80
2021/09/12 12:40:08;;;;;;;0.10;0.10;;;24.80;61.00;;;;;;5046148;28;20090;-80
2021/09/12 12:42:41;;;;;;;0.00;0.00;;;24.50;61.20;;;;;;5045573;28;20024;-80
2021/09/12 12:45:36;;;;;;;0.00;0.00;;;24.20;62.20;;;;;;5044074;28;20048;-80
2021/09/12 12:48:08;;;;;;;0.22;0.22;;;24.40;62.10;;;;;;5024024;28;20056;-81
2021/09/12 12:50:42;;;;;;;0.55;0.15;;;24.70;62.40;;;;;;5051226;28;20055;-81
2021/09/12 12:55:50;;;;;;;0.00;0.00;;;24.40;62.00;;;;;;5052354;28;20067;-80